sensor_id;sensor_type;location;lat;lon;timestamp;P1;durP1;ratioP1;P2;durP2;ratioP2
47922;SDS011;33688;44.354;9.228;2023-06-22T00:01:17;1.95;;;1.75;;
47922;SDS011;33688;44.354;9.228;2023-06-22T00:03:43;2.08;;;1.88;;
47922;SDS011;33688;44.354;9.228;2023-06-22T00:06:08;2.13;;;1.92;;
47922;SDS011;33688;44.354;9.228;2023-06-22T00:08:37;2.10;;;1.90;;
47922;SDS011;33688;44.354;9.228;2023-06-22T00:11:03;2.30;;;2.10;;
47922;SDS011;33688;44.354;9.228;2023-06-22T00:13:29;2.13;;;1.92;;
47922;SDS011;33688;44.354;9.228;2023-06-22T00:15:54;1.88;;;1.77;;
47922;SDS011;33688;44.354;9.228;2023-06-22T00:18:20;2.53;;;1.98;;
47922;SDS011;33688;44.354;9.228;2023-06-22T00:20:47;2.38;;;2.17;;
47922;SDS011;33688;44.354;9.228;2023-06-22T00:23:13;1.95;;;1.83;;
47922;SDS011;33688;44.354;9.228;2023-06-22T00:25:42;2.20;;;2.00;;
47922;SDS011;33688;44.354;9.228;2023-06-22T00:28:08;2.85;;;2.03;;
47922;SDS011;33688;44.354;9.228;2023-06-22T00:30:34;4.18;;;2.10;;
47922;SDS011;33688;44.354;9.228;2023-06-22T00:33:00;1.80;;;1.70;;
47922;SDS011;33688;44.354;9.228;2023-06-22T00:35:26;2.10;;;1.95;;
47922;SDS011;33688;44.354;9.228;2023-06-22T00:37:54;2.90;;;2.20;;
47922;SDS011;33688;44.354;9.228;2023-06-22T00:40:29;2.22;;;2.03;;
47922;SDS011;33688;44.354;9.228;2023-06-22T00:42:56;3.47;;;1.95;;
47922;SDS011;33688;44.354;9.228;2023-06-22T00:45:23;2.20;;;2.00;;
47922;SDS011;33688;44.354;9.228;2023-06-22T00:47:51;2.35;;;2.00;;
47922;SDS011;33688;44.354;9.228;2023-06-22T00:50:24;2.08;;;1.85;;
47922;SDS011;33688;44.354;9.228;2023-06-22T00:52:53;1.90;;;1.80;;
47922;SDS011;33688;44.354;9.228;2023-06-22T00:55:24;2.20;;;1.80;;
47922;SDS011;33688;44.354;9.228;2023-06-22T00:57:53;2.03;;;1.83;;
47922;SDS011;33688;44.354;9.228;2023-06-22T01:00:22;2.60;;;2.00;;
47922;SDS011;33688;44.354;9.228;2023-06-22T01:02:51;2.38;;;2.17;;
47922;SDS011;33688;44.354;9.228;2023-06-22T01:05:21;2.40;;;2.08;;
47922;SDS011;33688;44.354;9.228;2023-06-22T01:08:31;2.00;;;1.88;;
47922;SDS011;33688;44.354;9.228;2023-06-22T01:11:21;2.65;;;2.00;;
47922;SDS011;33688;44.354;9.228;2023-06-22T01:16:39;2.17;;;1.98;;
47922;SDS011;33688;44.354;9.228;2023-06-22T01:22:22;1.83;;;1.53;;
47922;SDS011;33688;44.354;9.228;2023-06-22T01:24:54;2.05;;;1.90;;
47922;SDS011;33688;44.354;9.228;2023-06-22T01:30:42;2.20;;;2.00;;
47922;SDS011;33688;44.354;9.228;2023-06-22T01:33:10;1.85;;;1.58;;
47922;SDS011;33688;44.354;9.228;2023-06-22T01:35:39;1.58;;;1.48;;
47922;SDS011;33688;44.354;9.228;2023-06-22T01:38:05;1.95;;;1.80;;
47922;SDS011;33688;44.354;9.228;2023-06-22T01:40:32;5.03;;;1.83;;
47922;SDS011;33688;44.354;9.228;2023-06-22T01:43:00;2.13;;;1.92;;
47922;SDS011;33688;44.354;9.228;2023-06-22T01:45:28;2.20;;;2.00;;
47922;SDS011;33688;44.354;9.228;2023-06-22T01:47:55;1.90;;;1.80;;
47922;SDS011;33688;44.354;9.228;2023-06-22T01:50:23;1.85;;;1.65;;
47922;SDS011;33688;44.354;9.228;2023-06-22T01:52:49;2.38;;;2.17;;
47922;SDS011;33688;44.354;9.228;2023-06-22T01:55:15;2.33;;;2.15;;
47922;SDS011;33688;44.354;9.228;2023-06-22T01:57:42;2.90;;;2.25;;
47922;SDS011;33688;44.354;9.228;2023-06-22T02:00:10;1.95;;;1.80;;
47922;SDS011;33688;44.354;9.228;2023-06-22T02:02:44;1.73;;;1.63;;
47922;SDS011;33688;44.354;9.228;2023-06-22T02:05:22;1.70;;;1.60;;
47922;SDS011;33688;44.354;9.228;2023-06-22T02:07:52;1.98;;;1.80;;
47922;SDS011;33688;44.354;9.228;2023-06-22T02:10:32;3.00;;;2.20;;
47922;SDS011;33688;44.354;9.228;2023-06-22T02:13:04;2.40;;;2.20;;
47922;SDS011;33688;44.354;9.228;2023-06-22T02:15:33;1.65;;;1.55;;
47922;SDS011;33688;44.354;9.228;2023-06-22T02:17:59;2.30;;;2.10;;
47922;SDS011;33688;44.354;9.228;2023-06-22T02:20:26;2.00;;;1.77;;
47922;SDS011;33688;44.354;9.228;2023-06-22T02:22:51;2.20;;;1.88;;
47922;SDS011;33688;44.354;9.228;2023-06-22T02:25:17;2.25;;;1.60;;
47922;SDS011;33688;44.354;9.228;2023-06-22T02:27:45;1.80;;;1.70;;
47922;SDS011;33688;44.354;9.228;2023-06-22T02:30:11;1.98;;;1.80;;
47922;SDS011;33688;44.354;9.228;2023-06-22T02:32:38;2.25;;;2.05;;
47922;SDS011;33688;44.354;9.228;2023-06-22T02:35:07;1.88;;;1.75;;
47922;SDS011;33688;44.354;9.228;2023-06-22T02:37:34;1.80;;;1.70;;
47922;SDS011;33688;44.354;9.228;2023-06-22T02:40:10;1.95;;;1.83;;
47922;SDS011;33688;44.354;9.228;2023-06-22T02:42:36;1.50;;;1.40;;
47922;SDS011;33688;44.354;9.228;2023-06-22T02:45:03;1.85;;;1.75;;
47922;SDS011;33688;44.354;9.228;2023-06-22T02:47:29;2.13;;;1.60;;
47922;SDS011;33688;44.354;9.228;2023-06-22T02:49:57;1.98;;;1.77;;
47922;SDS011;33688;44.354;9.228;2023-06-22T02:52:23;2.28;;;2.10;;
47922;SDS011;33688;44.354;9.228;2023-06-22T02:54:49;2.15;;;1.95;;
47922;SDS011;33688;44.354;9.228;2023-06-22T02:57:15;1.77;;;1.67;;
47922;SDS011;33688;44.354;9.228;2023-06-22T02:59:42;1.92;;;1.67;;
47922;SDS011;33688;44.354;9.228;2023-06-22T03:02:10;2.67;;;2.08;;
47922;SDS011;33688;44.354;9.228;2023-06-22T03:04:37;1.60;;;1.50;;
47922;SDS011;33688;44.354;9.228;2023-06-22T03:07:02;1.80;;;1.70;;
47922;SDS011;33688;44.354;9.228;2023-06-22T03:09:30;2.60;;;1.65;;
47922;SDS011;33688;44.354;9.228;2023-06-22T03:11:56;1.85;;;1.75;;
47922;SDS011;33688;44.354;9.228;2023-06-22T03:14:28;1.73;;;1.42;;
47922;SDS011;33688;44.354;9.228;2023-06-22T03:16:55;2.63;;;1.60;;
47922;SDS011;33688;44.354;9.228;2023-06-22T03:19:27;1.95;;;1.77;;
47922;SDS011;33688;44.354;9.228;2023-06-22T03:21:54;1.75;;;1.60;;
47922;SDS011;33688;44.354;9.228;2023-06-22T03:24:20;1.90;;;1.80;;
47922;SDS011;33688;44.354;9.228;2023-06-22T03:26:46;2.08;;;1.50;;
47922;SDS011;33688;44.354;9.228;2023-06-22T03:29:12;2.00;;;1.83;;
47922;SDS011;33688;44.354;9.228;2023-06-22T03:31:38;2.10;;;1.90;;
47922;SDS011;33688;44.354;9.228;2023-06-22T03:34:06;1.65;;;1.50;;
47922;SDS011;33688;44.354;9.228;2023-06-22T03:36:31;1.55;;;1.45;;
47922;SDS011;33688;44.354;9.228;2023-06-22T03:38:58;1.88;;;1.77;;
47922;SDS011;33688;44.354;9.228;2023-06-22T03:41:24;1.65;;;1.55;;
47922;SDS011;33688;44.354;9.228;2023-06-22T03:43:50;1.58;;;1.48;;
47922;SDS011;33688;44.354;9.228;2023-06-22T03:46:18;2.20;;;1.75;;
47922;SDS011;33688;44.354;9.228;2023-06-22T03:48:45;1.70;;;1.60;;
47922;SDS011;33688;44.354;9.228;2023-06-22T03:51:10;1.48;;;1.38;;
47922;SDS011;33688;44.354;9.228;2023-06-22T03:53:37;1.80;;;1.70;;
47922;SDS011;33688;44.354;9.228;2023-06-22T03:56:03;1.92;;;1.75;;
47922;SDS011;33688;44.354;9.228;2023-06-22T03:58:29;2.30;;;1.75;;
47922;SDS011;33688;44.354;9.228;2023-06-22T04:00:57;1.50;;;1.40;;
47922;SDS011;33688;44.354;9.228;2023-06-22T04:03:25;1.65;;;1.55;;
47922;SDS011;33688;44.354;9.228;2023-06-22T04:05:51;1.30;;;1.20;;
47922;SDS011;33688;44.354;9.228;2023-06-22T04:08:17;2.10;;;1.90;;
47922;SDS011;33688;44.354;9.228;2023-06-22T04:10:43;1.63;;;1.48;;
47922;SDS011;33688;44.354;9.228;2023-06-22T04:13:10;1.45;;;1.35;;
47922;SDS011;33688;44.354;9.228;2023-06-22T04:15:36;2.65;;;1.80;;
47922;SDS011;33688;44.354;9.228;2023-06-22T04:18:01;1.50;;;1.40;;
47922;SDS011;33688;44.354;9.228;2023-06-22T04:20:27;1.55;;;1.45;;
47922;SDS011;33688;44.354;9.228;2023-06-22T04:22:53;1.58;;;1.48;;
47922;SDS011;33688;44.354;9.228;2023-06-22T04:25:19;1.58;;;1.48;;
47922;SDS011;33688;44.354;9.228;2023-06-22T04:27:45;1.60;;;1.50;;
47922;SDS011;33688;44.354;9.228;2023-06-22T04:30:12;2.20;;;1.80;;
47922;SDS011;33688;44.354;9.228;2023-06-22T04:32:40;1.40;;;1.30;;
47922;SDS011;33688;44.354;9.228;2023-06-22T04:35:06;1.80;;;1.50;;
47922;SDS011;33688;44.354;9.228;2023-06-22T04:37:32;2.65;;;2.25;;
47922;SDS011;33688;44.354;9.228;2023-06-22T04:39:59;2.22;;;2.00;;
47922;SDS011;33688;44.354;9.228;2023-06-22T04:42:27;2.15;;;1.95;;
47922;SDS011;33688;44.354;9.228;2023-06-22T04:44:53;1.85;;;1.73;;
47922;SDS011;33688;44.354;9.228;2023-06-22T04:47:19;3.10;;;2.20;;
47922;SDS011;33688;44.354;9.228;2023-06-22T04:49:45;2.40;;;2.17;;
47922;SDS011;33688;44.354;9.228;2023-06-22T04:52:12;1.67;;;1.58;;
47922;SDS011;33688;44.354;9.228;2023-06-22T04:54:40;3.35;;;2.65;;
47922;SDS011;33688;44.354;9.228;2023-06-22T04:57:13;2.33;;;1.80;;
47922;SDS011;33688;44.354;9.228;2023-06-22T04:59:39;2.53;;;2.30;;
47922;SDS011;33688;44.354;9.228;2023-06-22T05:02:07;2.45;;;2.25;;
47922;SDS011;33688;44.354;9.228;2023-06-22T05:04:33;2.53;;;2.30;;
47922;SDS011;33688;44.354;9.228;2023-06-22T05:07:01;2.30;;;2.05;;
47922;SDS011;33688;44.354;9.228;2023-06-22T05:09:28;2.53;;;2.00;;
47922;SDS011;33688;44.354;9.228;2023-06-22T05:11:54;2.42;;;2.22;;
47922;SDS011;33688;44.354;9.228;2023-06-22T05:14:21;2.78;;;2.20;;
47922;SDS011;33688;44.354;9.228;2023-06-22T05:16:47;3.00;;;2.10;;
47922;SDS011;33688;44.354;9.228;2023-06-22T05:19:14;2.50;;;2.30;;
47922;SDS011;33688;44.354;9.228;2023-06-22T05:21:40;2.30;;;1.83;;
47922;SDS011;33688;44.354;9.228;2023-06-22T05:24:05;2.55;;;2.08;;
47922;SDS011;33688;44.354;9.228;2023-06-22T05:26:32;2.05;;;1.85;;
47922;SDS011;33688;44.354;9.228;2023-06-22T05:29:00;2.28;;;1.90;;
47922;SDS011;33688;44.354;9.228;2023-06-22T05:31:28;2.08;;;1.73;;
47922;SDS011;33688;44.354;9.228;2023-06-22T05:33:56;2.95;;;1.90;;
47922;SDS011;33688;44.354;9.228;2023-06-22T05:36:22;2.53;;;2.33;;
47922;SDS011;33688;44.354;9.228;2023-06-22T05:38:51;2.47;;;2.00;;
47922;SDS011;33688;44.354;9.228;2023-06-22T05:41:18;2.58;;;1.73;;
47922;SDS011;33688;44.354;9.228;2023-06-22T05:43:44;2.60;;;2.40;;
47922;SDS011;33688;44.354;9.228;2023-06-22T05:46:10;4.30;;;2.60;;
47922;SDS011;33688;44.354;9.228;2023-06-22T05:51:20;3.45;;;2.67;;
47922;SDS011;33688;44.354;9.228;2023-06-22T05:53:46;5.00;;;2.40;;
47922;SDS011;33688;44.354;9.228;2023-06-22T05:56:15;3.25;;;2.40;;
47922;SDS011;33688;44.354;9.228;2023-06-22T05:58:43;3.28;;;2.10;;
47922;SDS011;33688;44.354;9.228;2023-06-22T06:01:09;4.20;;;2.58;;
47922;SDS011;33688;44.354;9.228;2023-06-22T06:03:35;4.57;;;3.03;;
47922;SDS011;33688;44.354;9.228;2023-06-22T06:06:07;3.15;;;2.38;;
47922;SDS011;33688;44.354;9.228;2023-06-22T06:08:34;4.28;;;2.88;;
47922;SDS011;33688;44.354;9.228;2023-06-22T06:11:01;3.13;;;2.67;;
47922;SDS011;33688;44.354;9.228;2023-06-22T06:13:26;7.88;;;2.88;;
47922;SDS011;33688;44.354;9.228;2023-06-22T06:15:52;4.93;;;2.80;;
47922;SDS011;33688;44.354;9.228;2023-06-22T06:18:20;3.80;;;2.92;;
47922;SDS011;33688;44.354;9.228;2023-06-22T06:20:46;5.05;;;3.38;;
47922;SDS011;33688;44.354;9.228;2023-06-22T06:23:13;4.80;;;3.47;;
47922;SDS011;33688;44.354;9.228;2023-06-22T06:25:39;7.72;;;3.97;;
47922;SDS011;33688;44.354;9.228;2023-06-22T06:28:05;5.10;;;3.40;;
47922;SDS011;33688;44.354;9.228;2023-06-22T06:30:35;5.15;;;3.42;;
47922;SDS011;33688;44.354;9.228;2023-06-22T06:33:02;5.15;;;3.47;;
47922;SDS011;33688;44.354;9.228;2023-06-22T06:35:33;4.50;;;3.33;;
47922;SDS011;33688;44.354;9.228;2023-06-22T06:38:00;3.63;;;2.83;;
47922;SDS011;33688;44.354;9.228;2023-06-22T06:40:26;4.68;;;3.10;;
47922;SDS011;33688;44.354;9.228;2023-06-22T06:42:52;4.13;;;3.38;;
47922;SDS011;33688;44.354;9.228;2023-06-22T06:45:18;4.55;;;3.55;;
47922;SDS011;33688;44.354;9.228;2023-06-22T06:47:47;4.07;;;2.90;;
47922;SDS011;33688;44.354;9.228;2023-06-22T06:50:15;3.55;;;2.63;;
47922;SDS011;33688;44.354;9.228;2023-06-22T06:52:42;3.35;;;2.70;;
47922;SDS011;33688;44.354;9.228;2023-06-22T06:55:08;4.57;;;3.22;;
47922;SDS011;33688;44.354;9.228;2023-06-22T06:57:39;4.45;;;3.22;;
47922;SDS011;33688;44.354;9.228;2023-06-22T07:00:07;5.57;;;3.22;;
47922;SDS011;33688;44.354;9.228;2023-06-22T07:02:40;3.23;;;2.73;;
47922;SDS011;33688;44.354;9.228;2023-06-22T07:05:08;4.03;;;3.10;;
47922;SDS011;33688;44.354;9.228;2023-06-22T07:07:36;4.10;;;2.85;;
47922;SDS011;33688;44.354;9.228;2023-06-22T07:10:02;6.25;;;3.10;;
47922;SDS011;33688;44.354;9.228;2023-06-22T07:12:30;7.78;;;3.38;;
47922;SDS011;33688;44.354;9.228;2023-06-22T07:15:05;3.17;;;2.70;;
47922;SDS011;33688;44.354;9.228;2023-06-22T07:17:33;3.92;;;3.08;;
47922;SDS011;33688;44.354;9.228;2023-06-22T07:20:00;4.82;;;3.08;;
47922;SDS011;33688;44.354;9.228;2023-06-22T07:22:32;4.55;;;3.38;;
47922;SDS011;33688;44.354;9.228;2023-06-22T07:24:58;4.68;;;3.40;;
47922;SDS011;33688;44.354;9.228;2023-06-22T07:27:24;5.93;;;3.17;;
47922;SDS011;33688;44.354;9.228;2023-06-22T07:29:50;6.07;;;3.13;;
47922;SDS011;33688;44.354;9.228;2023-06-22T07:32:16;5.15;;;3.50;;
47922;SDS011;33688;44.354;9.228;2023-06-22T07:34:41;4.40;;;3.08;;
47922;SDS011;33688;44.354;9.228;2023-06-22T07:37:08;8.70;;;3.45;;
47922;SDS011;33688;44.354;9.228;2023-06-22T07:39:34;4.13;;;3.45;;
47922;SDS011;33688;44.354;9.228;2023-06-22T07:42:00;4.40;;;3.38;;
47922;SDS011;33688;44.354;9.228;2023-06-22T07:44:26;4.85;;;3.40;;
47922;SDS011;33688;44.354;9.228;2023-06-22T07:46:51;4.40;;;3.58;;
47922;SDS011;33688;44.354;9.228;2023-06-22T07:49:17;3.60;;;2.97;;
47922;SDS011;33688;44.354;9.228;2023-06-22T07:51:43;5.47;;;3.20;;
47922;SDS011;33688;44.354;9.228;2023-06-22T07:54:09;3.53;;;3.17;;
47922;SDS011;33688;44.354;9.228;2023-06-22T07:56:36;6.05;;;3.25;;
47922;SDS011;33688;44.354;9.228;2023-06-22T07:59:03;5.35;;;3.13;;
47922;SDS011;33688;44.354;9.228;2023-06-22T08:01:29;4.22;;;3.03;;
47922;SDS011;33688;44.354;9.228;2023-06-22T08:03:56;8.27;;;3.53;;
47922;SDS011;33688;44.354;9.228;2023-06-22T08:06:22;4.55;;;3.03;;
47922;SDS011;33688;44.354;9.228;2023-06-22T08:08:47;5.05;;;2.97;;
47922;SDS011;33688;44.354;9.228;2023-06-22T08:11:14;3.78;;;2.78;;
47922;SDS011;33688;44.354;9.228;2023-06-22T08:13:40;5.05;;;3.83;;
47922;SDS011;33688;44.354;9.228;2023-06-22T08:18:37;8.23;;;3.17;;
47922;SDS011;33688;44.354;9.228;2023-06-22T08:23:33;3.97;;;2.92;;
47922;SDS011;33688;44.354;9.228;2023-06-22T08:26:01;4.88;;;3.03;;
47922;SDS011;33688;44.354;9.228;2023-06-22T08:28:26;4.47;;;2.60;;
47922;SDS011;33688;44.354;9.228;2023-06-22T08:30:54;4.70;;;3.50;;
47922;SDS011;33688;44.354;9.228;2023-06-22T08:33:20;4.55;;;3.05;;
47922;SDS011;33688;44.354;9.228;2023-06-22T08:35:50;3.33;;;3.03;;
47922;SDS011;33688;44.354;9.228;2023-06-22T08:38:15;3.00;;;2.70;;
47922;SDS011;33688;44.354;9.228;2023-06-22T08:40:43;4.68;;;3.10;;
47922;SDS011;33688;44.354;9.228;2023-06-22T08:43:09;3.67;;;3.10;;
47922;SDS011;33688;44.354;9.228;2023-06-22T08:45:36;4.25;;;2.78;;
47922;SDS011;33688;44.354;9.228;2023-06-22T08:48:02;3.10;;;2.80;;
47922;SDS011;33688;44.354;9.228;2023-06-22T08:50:27;6.20;;;3.05;;
47922;SDS011;33688;44.354;9.228;2023-06-22T08:52:53;4.95;;;3.08;;
47922;SDS011;33688;44.354;9.228;2023-06-22T08:55:19;4.13;;;2.58;;
47922;SDS011;33688;44.354;9.228;2023-06-22T08:57:45;12.18;;;3.60;;
47922;SDS011;33688;44.354;9.228;2023-06-22T09:00:13;4.85;;;3.25;;
47922;SDS011;33688;44.354;9.228;2023-06-22T09:02:44;5.32;;;3.05;;
47922;SDS011;33688;44.354;9.228;2023-06-22T09:05:11;4.47;;;3.03;;
47922;SDS011;33688;44.354;9.228;2023-06-22T09:07:36;6.60;;;2.75;;
47922;SDS011;33688;44.354;9.228;2023-06-22T09:12:34;5.50;;;3.08;;
47922;SDS011;33688;44.354;9.228;2023-06-22T09:15:02;4.28;;;3.35;;
47922;SDS011;33688;44.354;9.228;2023-06-22T09:17:28;4.65;;;3.40;;
47922;SDS011;33688;44.354;9.228;2023-06-22T09:19:54;4.00;;;3.25;;
47922;SDS011;33688;44.354;9.228;2023-06-22T09:22:20;4.10;;;2.95;;
47922;SDS011;33688;44.354;9.228;2023-06-22T09:24:46;4.18;;;3.42;;
47922;SDS011;33688;44.354;9.228;2023-06-22T09:27:12;4.28;;;3.28;;
47922;SDS011;33688;44.354;9.228;2023-06-22T09:29:40;5.00;;;3.33;;
47922;SDS011;33688;44.354;9.228;2023-06-22T09:32:05;4.80;;;3.03;;
47922;SDS011;33688;44.354;9.228;2023-06-22T09:37:23;4.07;;;3.03;;
47922;SDS011;33688;44.354;9.228;2023-06-22T09:42:35;5.03;;;3.55;;
47922;SDS011;33688;44.354;9.228;2023-06-22T09:45:02;3.70;;;2.92;;
47922;SDS011;33688;44.354;9.228;2023-06-22T09:47:29;4.32;;;3.05;;
47922;SDS011;33688;44.354;9.228;2023-06-22T09:49:54;3.88;;;3.05;;
47922;SDS011;33688;44.354;9.228;2023-06-22T09:52:21;5.03;;;3.42;;
47922;SDS011;33688;44.354;9.228;2023-06-22T09:54:47;5.15;;;3.03;;
47922;SDS011;33688;44.354;9.228;2023-06-22T09:57:13;3.72;;;2.90;;
47922;SDS011;33688;44.354;9.228;2023-06-22T09:59:40;3.65;;;2.92;;
47922;SDS011;33688;44.354;9.228;2023-06-22T10:02:06;4.68;;;3.30;;
47922;SDS011;33688;44.354;9.228;2023-06-22T10:07:19;5.40;;;3.47;;
47922;SDS011;33688;44.354;9.228;2023-06-22T10:09:45;3.72;;;2.85;;
47922;SDS011;33688;44.354;9.228;2023-06-22T10:12:11;3.80;;;2.80;;
47922;SDS011;33688;44.354;9.228;2023-06-22T10:14:38;4.97;;;3.00;;
47922;SDS011;33688;44.354;9.228;2023-06-22T10:17:04;7.03;;;3.35;;
47922;SDS011;33688;44.354;9.228;2023-06-22T10:19:32;3.67;;;2.88;;
47922;SDS011;33688;44.354;9.228;2023-06-22T10:21:58;4.00;;;3.28;;
47922;SDS011;33688;44.354;9.228;2023-06-22T10:27:13;3.55;;;2.85;;
47922;SDS011;33688;44.354;9.228;2023-06-22T10:29:41;4.80;;;3.25;;
47922;SDS011;33688;44.354;9.228;2023-06-22T10:32:08;3.80;;;3.40;;
47922;SDS011;33688;44.354;9.228;2023-06-22T10:34:34;5.97;;;2.85;;
47922;SDS011;33688;44.354;9.228;2023-06-22T10:37:00;4.20;;;2.83;;
47922;SDS011;33688;44.354;9.228;2023-06-22T10:42:11;3.30;;;3.00;;
47922;SDS011;33688;44.354;9.228;2023-06-22T10:44:39;3.05;;;2.75;;
47922;SDS011;33688;44.354;9.228;2023-06-22T10:47:08;5.57;;;2.92;;
47922;SDS011;33688;44.354;9.228;2023-06-22T10:49:35;3.53;;;2.83;;
47922;SDS011;33688;44.354;9.228;2023-06-22T10:52:01;4.20;;;2.83;;
47922;SDS011;33688;44.354;9.228;2023-06-22T10:54:27;3.60;;;2.97;;
47922;SDS011;33688;44.354;9.228;2023-06-22T10:56:54;6.60;;;2.42;;
47922;SDS011;33688;44.354;9.228;2023-06-22T10:59:22;4.25;;;2.95;;
47922;SDS011;33688;44.354;9.228;2023-06-22T11:01:49;3.20;;;2.70;;
47922;SDS011;33688;44.354;9.228;2023-06-22T11:04:14;3.20;;;2.90;;
47922;SDS011;33688;44.354;9.228;2023-06-22T11:06:40;4.85;;;3.33;;
47922;SDS011;33688;44.354;9.228;2023-06-22T11:09:06;3.50;;;2.88;;
47922;SDS011;33688;44.354;9.228;2023-06-22T11:11:32;2.60;;;2.40;;
47922;SDS011;33688;44.354;9.228;2023-06-22T11:13:58;3.38;;;2.33;;
47922;SDS011;33688;44.354;9.228;2023-06-22T11:16:24;3.10;;;2.60;;
47922;SDS011;33688;44.354;9.228;2023-06-22T11:18:50;4.28;;;3.03;;
47922;SDS011;33688;44.354;9.228;2023-06-22T11:21:15;2.83;;;2.22;;
47922;SDS011;33688;44.354;9.228;2023-06-22T11:23:41;4.20;;;2.80;;
47922;SDS011;33688;44.354;9.228;2023-06-22T11:26:08;3.25;;;2.78;;
47922;SDS011;33688;44.354;9.228;2023-06-22T11:28:34;4.82;;;3.30;;
47922;SDS011;33688;44.354;9.228;2023-06-22T11:31:01;3.58;;;2.90;;
47922;SDS011;33688;44.354;9.228;2023-06-22T11:35:56;2.88;;;2.58;;
47922;SDS011;33688;44.354;9.228;2023-06-22T11:41:11;3.35;;;2.50;;
47922;SDS011;33688;44.354;9.228;2023-06-22T11:43:37;2.92;;;2.60;;
47922;SDS011;33688;44.354;9.228;2023-06-22T11:46:03;3.33;;;2.70;;
47922;SDS011;33688;44.354;9.228;2023-06-22T11:48:30;3.17;;;2.30;;
47922;SDS011;33688;44.354;9.228;2023-06-22T11:50:57;2.63;;;2.42;;
47922;SDS011;33688;44.354;9.228;2023-06-22T11:53:26;2.80;;;2.60;;
47922;SDS011;33688;44.354;9.228;2023-06-22T11:55:53;2.72;;;2.28;;
47922;SDS011;33688;44.354;9.228;2023-06-22T12:01:07;2.88;;;2.45;;
47922;SDS011;33688;44.354;9.228;2023-06-22T12:03:34;2.75;;;2.25;;
47922;SDS011;33688;44.354;9.228;2023-06-22T12:06:00;2.65;;;2.42;;
47922;SDS011;33688;44.354;9.228;2023-06-22T12:08:25;3.08;;;2.42;;
47922;SDS011;33688;44.354;9.228;2023-06-22T12:10:51;4.10;;;2.22;;
47922;SDS011;33688;44.354;9.228;2023-06-22T12:16:11;3.03;;;2.00;;
47922;SDS011;33688;44.354;9.228;2023-06-22T12:18:38;4.13;;;2.65;;
47922;SDS011;33688;44.354;9.228;2023-06-22T12:21:04;3.67;;;2.95;;
47922;SDS011;33688;44.354;9.228;2023-06-22T12:23:30;5.82;;;2.75;;
47922;SDS011;33688;44.354;9.228;2023-06-22T12:25:56;4.38;;;2.88;;
47922;SDS011;33688;44.354;9.228;2023-06-22T12:28:21;3.92;;;2.75;;
47922;SDS011;33688;44.354;9.228;2023-06-22T12:30:48;2.92;;;2.58;;
47922;SDS011;33688;44.354;9.228;2023-06-22T12:33:15;6.03;;;2.88;;
47922;SDS011;33688;44.354;9.228;2023-06-22T12:35:41;2.63;;;2.25;;
47922;SDS011;33688;44.354;9.228;2023-06-22T12:40:39;3.42;;;2.58;;
47922;SDS011;33688;44.354;9.228;2023-06-22T12:43:05;2.97;;;2.67;;
47922;SDS011;33688;44.354;9.228;2023-06-22T12:45:33;3.30;;;2.78;;
47922;SDS011;33688;44.354;9.228;2023-06-22T12:47:59;3.10;;;2.60;;
47922;SDS011;33688;44.354;9.228;2023-06-22T12:50:26;3.05;;;2.42;;
47922;SDS011;33688;44.354;9.228;2023-06-22T12:52:53;2.95;;;2.65;;
47922;SDS011;33688;44.354;9.228;2023-06-22T12:58:13;3.30;;;2.53;;
47922;SDS011;33688;44.354;9.228;2023-06-22T13:00:39;3.08;;;2.17;;
47922;SDS011;33688;44.354;9.228;2023-06-22T13:03:05;3.60;;;2.25;;
47922;SDS011;33688;44.354;9.228;2023-06-22T13:05:32;2.53;;;2.33;;
47922;SDS011;33688;44.354;9.228;2023-06-22T13:08:00;3.55;;;2.92;;
47922;SDS011;33688;44.354;9.228;2023-06-22T13:13:10;2.58;;;2.05;;
47922;SDS011;33688;44.354;9.228;2023-06-22T13:15:37;3.95;;;2.58;;
47922;SDS011;33688;44.354;9.228;2023-06-22T13:18:03;3.70;;;2.70;;
47922;SDS011;33688;44.354;9.228;2023-06-22T13:20:29;2.58;;;2.35;;
47922;SDS011;33688;44.354;9.228;2023-06-22T13:22:55;7.88;;;2.22;;
47922;SDS011;33688;44.354;9.228;2023-06-22T13:25:23;2.50;;;2.30;;
47922;SDS011;33688;44.354;9.228;2023-06-22T13:27:51;3.53;;;2.72;;
47922;SDS011;33688;44.354;9.228;2023-06-22T13:30:17;3.47;;;2.17;;
47922;SDS011;33688;44.354;9.228;2023-06-22T13:32:43;2.60;;;2.38;;
47922;SDS011;33688;44.354;9.228;2023-06-22T13:35:09;3.25;;;2.38;;
47922;SDS011;33688;44.354;9.228;2023-06-22T13:37:36;4.25;;;2.55;;
47922;SDS011;33688;44.354;9.228;2023-06-22T13:42:35;2.75;;;2.40;;
47922;SDS011;33688;44.354;9.228;2023-06-22T13:45:03;4.80;;;3.05;;
47922;SDS011;33688;44.354;9.228;2023-06-22T13:47:30;2.83;;;2.20;;
47922;SDS011;33688;44.354;9.228;2023-06-22T13:49:56;2.67;;;2.45;;
47922;SDS011;33688;44.354;9.228;2023-06-22T13:52:22;5.35;;;2.45;;
47922;SDS011;33688;44.354;9.228;2023-06-22T13:54:50;5.93;;;2.28;;
47922;SDS011;33688;44.354;9.228;2023-06-22T13:57:16;3.22;;;2.40;;
47922;SDS011;33688;44.354;9.228;2023-06-22T13:59:43;5.32;;;2.78;;
47922;SDS011;33688;44.354;9.228;2023-06-22T14:02:09;3.38;;;2.70;;
47922;SDS011;33688;44.354;9.228;2023-06-22T14:04:35;5.88;;;2.60;;
47922;SDS011;33688;44.354;9.228;2023-06-22T14:07:01;3.17;;;2.83;;
47922;SDS011;33688;44.354;9.228;2023-06-22T14:09:27;2.92;;;2.10;;
47922;SDS011;33688;44.354;9.228;2023-06-22T14:11:53;3.53;;;2.78;;
47922;SDS011;33688;44.354;9.228;2023-06-22T14:14:21;2.90;;;2.35;;
47922;SDS011;33688;44.354;9.228;2023-06-22T14:16:47;5.00;;;2.45;;
47922;SDS011;33688;44.354;9.228;2023-06-22T14:21:59;2.47;;;2.28;;
47922;SDS011;33688;44.354;9.228;2023-06-22T14:24:26;3.28;;;2.60;;
47922;SDS011;33688;44.354;9.228;2023-06-22T14:26:52;5.00;;;2.53;;
47922;SDS011;33688;44.354;9.228;2023-06-22T14:29:20;2.58;;;2.30;;
47922;SDS011;33688;44.354;9.228;2023-06-22T14:31:47;3.50;;;2.67;;
47922;SDS011;33688;44.354;9.228;2023-06-22T14:34:14;5.47;;;2.78;;
47922;SDS011;33688;44.354;9.228;2023-06-22T14:36:40;4.35;;;2.70;;
47922;SDS011;33688;44.354;9.228;2023-06-22T14:39:08;3.25;;;2.90;;
47922;SDS011;33688;44.354;9.228;2023-06-22T14:41:35;2.92;;;2.38;;
47922;SDS011;33688;44.354;9.228;2023-06-22T14:44:02;3.63;;;2.75;;
47922;SDS011;33688;44.354;9.228;2023-06-22T14:46:27;2.60;;;2.40;;
47922;SDS011;33688;44.354;9.228;2023-06-22T14:48:53;2.88;;;2.45;;
47922;SDS011;33688;44.354;9.228;2023-06-22T14:51:19;4.60;;;2.40;;
47922;SDS011;33688;44.354;9.228;2023-06-22T14:53:45;3.60;;;2.42;;
47922;SDS011;33688;44.354;9.228;2023-06-22T14:56:11;3.22;;;2.80;;
47922;SDS011;33688;44.354;9.228;2023-06-22T14:58:39;5.03;;;2.88;;
47922;SDS011;33688;44.354;9.228;2023-06-22T15:01:10;4.72;;;2.67;;
47922;SDS011;33688;44.354;9.228;2023-06-22T15:03:36;2.60;;;2.40;;
47922;SDS011;33688;44.354;9.228;2023-06-22T15:06:03;3.92;;;2.58;;
47922;SDS011;33688;44.354;9.228;2023-06-22T15:08:29;5.97;;;2.85;;
47922;SDS011;33688;44.354;9.228;2023-06-22T15:10:58;2.95;;;2.50;;
47922;SDS011;33688;44.354;9.228;2023-06-22T15:13:27;2.65;;;2.40;;
47922;SDS011;33688;44.354;9.228;2023-06-22T15:15:59;5.88;;;2.72;;
47922;SDS011;33688;44.354;9.228;2023-06-22T15:18:28;4.35;;;2.50;;
47922;SDS011;33688;44.354;9.228;2023-06-22T15:20:55;3.05;;;2.30;;
47922;SDS011;33688;44.354;9.228;2023-06-22T15:23:21;2.88;;;2.47;;
47922;SDS011;33688;44.354;9.228;2023-06-22T15:25:48;6.00;;;2.70;;
47922;SDS011;33688;44.354;9.228;2023-06-22T15:28:14;13.45;;;2.90;;
47922;SDS011;33688;44.354;9.228;2023-06-22T15:30:40;7.90;;;3.08;;
47922;SDS011;33688;44.354;9.228;2023-06-22T15:33:06;7.63;;;3.13;;
47922;SDS011;33688;44.354;9.228;2023-06-22T15:35:32;6.28;;;3.20;;
47922;SDS011;33688;44.354;9.228;2023-06-22T15:37:59;5.47;;;3.42;;
47922;SDS011;33688;44.354;9.228;2023-06-22T15:40:26;12.25;;;4.40;;
47922;SDS011;33688;44.354;9.228;2023-06-22T15:42:52;4.40;;;3.45;;
47922;SDS011;33688;44.354;9.228;2023-06-22T15:45:19;8.07;;;3.58;;